Depesze METAR lotnisk w Polsce

EPWA EPMO EPKK EPLL EPWR EPKT EPGD EPPO EPRZ EPSC EPLB EPBY EPZG EPSY EPCE EPDA EPDE EPIR EPKS EPLK EPLY EPMB EPMI EPMM EPNA EPOK EPPR EPPW EPRA EPSN EPTM

METAR – format kodowanego raportu o pogodzie używany w meteorologii lotniczej i prognozie pogody. METAR jest akronimem od ang. Meteorological Aerodrome Report. Typowy METAR zawiera informację o temperaturze, ciśnieniu, temperaturze punktu rosy, sile i kierunku wiatru, opadzie, pokrywie chmur, wysokości podstawy chmur, widzialności, lecz może zawierać też inne informacje (np. stan dróg startowych).

Warszawa-Okęcie (EPWA)

METAR = EPWA 041300Z 32010KT 9000 BKN013 04/00 Q1013 NOSIG

STACJA........... EPWA - Warszawa-Okęcie (WAW)
POMIAR........... Thu Mar 4, 14:00 CET
WIATR............ północno zachodni (NW) z prędkością 19 km/h
WIDZIALNOŚĆ...... 9000 metrów
CHMURY........... zachmurzenie średnie (5/8-7/8)
TEMPERATURA...... 4°C
T.PUNKTU ROSY.... 0°C
WILGOTNOŚĆ....... 75%
T.ODCZUWALNA..... 0°C
CIŚNIENIE........ 1013 hPa
CIŚN.BEZWZGL..... 999 hPa
PROGNOZA......... bez nagłych zmian w ciągu 2h

Sprawdź też: Prognoza pogody Warszawa


Warszawa-Modlin (EPMO)

METAR = EPMO 041300Z 27013KT 9999 BKN010 02/01 Q1013 =

STACJA........... EPMO - Warszawa-Modlin (WMI)
POMIAR........... Thu Mar 4, 14:00 CET
WIATR............ zachodni (W) z prędkością 24 km/h
WIDZIALNOŚĆ...... powyżej 10 kilometrów
CHMURY........... zachmurzenie średnie (5/8-7/8)
TEMPERATURA...... 2°C
T.PUNKTU ROSY.... 1°C
WILGOTNOŚĆ....... 93%
T.ODCZUWALNA..... -3°C
CIŚNIENIE........ 1013 hPa
CIŚN.BEZWZGL..... 1000 hPa

Sprawdź też: Prognoza pogody Nowy Dwór Mazowiecki


Kraków-Balice (EPKK)

METAR = EPKK 041300Z 26014KT 9999 FEW033 10/03 Q1014

STACJA........... EPKK - Kraków-Balice (KRK)
POMIAR........... Thu Mar 4, 14:00 CET
WIATR............ zachodni (W) z prędkością 26 km/h
WIDZIALNOŚĆ...... powyżej 10 kilometrów
CHMURY........... zachmurzenie niewielkie (1/8-2/8)
TEMPERATURA...... 10°C
T.PUNKTU ROSY.... 3°C
WILGOTNOŚĆ....... 62%
T.ODCZUWALNA..... 7°C
CIŚNIENIE........ 1014 hPa
CIŚN.BEZWZGL..... 985 hPa

Sprawdź też: Prognoza pogody Kraków


Łódź-Lublinek (EPLL)

METAR = EPLL 041300Z 35008KT 310V010 7000 SCT011 BKN018 05/01 Q1013

STACJA........... EPLL - Łódź-Lublinek (LCJ)
POMIAR........... Thu Mar 4, 14:00 CET
WIATR............ północny (N) z prędkością 15 km/h
WIDZIALNOŚĆ...... 7000 metrów
CHMURY........... zachmurzenie średnie (5/8-7/8)
TEMPERATURA...... 5°C
T.PUNKTU ROSY.... 1°C
WILGOTNOŚĆ....... 76%
T.ODCZUWALNA..... 2°C
CIŚNIENIE........ 1013 hPa
CIŚN.BEZWZGL..... 990 hPa

Sprawdź też: Prognoza pogody Łódź


Wrocław-Strachowice (EPWR)

METAR = EPWR 041300Z 28013KT 9999 FEW030 11/03 Q1014

STACJA........... EPWR - Wrocław-Strachowice (WRO)
POMIAR........... Thu Mar 4, 14:00 CET
WIATR............ zachodni (W) z prędkością 24 km/h
WIDZIALNOŚĆ...... powyżej 10 kilometrów
CHMURY........... zachmurzenie niewielkie (1/8-2/8)
TEMPERATURA...... 11°C
T.PUNKTU ROSY.... 3°C
WILGOTNOŚĆ....... 58%
CIŚNIENIE........ 1014 hPa
CIŚN.BEZWZGL..... 999 hPa

Sprawdź też: Prognoza pogody Wrocław


Katowice-Pyrzowice (EPKT)

METAR = EPKT 041300Z 27020KT 9999 SCT032 10/02 Q1013

STACJA........... EPKT - Katowice-Pyrzowice (KTW)
POMIAR........... Thu Mar 4, 14:00 CET
WIATR............ zachodni (W) z prędkością 37 km/h
WIDZIALNOŚĆ...... powyżej 10 kilometrów
CHMURY........... zachmurzenie małe (3/8-4/8)
TEMPERATURA...... 10°C
T.PUNKTU ROSY.... 2°C
WILGOTNOŚĆ....... 58%
T.ODCZUWALNA..... 6°C
CIŚNIENIE........ 1013 hPa
CIŚN.BEZWZGL..... 977 hPa

Sprawdź też: Prognoza pogody Katowice


Gdańsk (EPGD)

METAR = EPGD 041300Z 02007KT 9999 SCT015 BKN023 01/M00 Q1013

STACJA........... EPGD - Gdańsk im. Lecha Wałęsy (GDN)
POMIAR........... Thu Mar 4, 14:00 CET
WIATR............ północno północno-wschodni (NNE) z prędkością 13 km/h
WIDZIALNOŚĆ...... powyżej 10 kilometrów
CHMURY........... zachmurzenie średnie (5/8-7/8)
TEMPERATURA...... 1°C
T.PUNKTU ROSY.... 0°C
WILGOTNOŚĆ....... 93%
T.ODCZUWALNA..... -3°C
CIŚNIENIE........ 1013 hPa
CIŚN.BEZWZGL..... 994 hPa

Sprawdź też: Prognoza pogody Gdańsk


Poznań-Ławica (EPPO)

METAR = EPPO 041300Z 31008KT 9999 OVC016 03/M01 Q1015

STACJA........... EPPO - Poznań-Ławica (POZ)
POMIAR........... Thu Mar 4, 14:00 CET
WIATR............ północno zachodni (NW) z prędkością 15 km/h
WIDZIALNOŚĆ...... powyżej 10 kilometrów
CHMURY........... zachmurzenie całkowite (8/8)
TEMPERATURA...... 3°C
T.PUNKTU ROSY.... -1°C
WILGOTNOŚĆ....... 75%
T.ODCZUWALNA..... -1°C
CIŚNIENIE........ 1015 hPa
CIŚN.BEZWZGL..... 1003 hPa

Sprawdź też: Prognoza pogody Poznań


Rzeszów-Jasionka (EPRZ)

METAR = EPRZ 041300Z 27016KT CAVOK 10/02 Q1013

STACJA........... EPRZ - Rzeszów-Jasionka (RZE)
POMIAR........... Thu Mar 4, 14:00 CET
WIATR............ zachodni (W) z prędkością 30 km/h
WIDZIALNOŚĆ...... powyżej 10 kilometrów
CHMURY........... bezchmurne niebo
TEMPERATURA...... 10°C
T.PUNKTU ROSY.... 2°C
WILGOTNOŚĆ....... 58%
T.ODCZUWALNA..... 7°C
CIŚNIENIE........ 1013 hPa
CIŚN.BEZWZGL..... 988 hPa

Sprawdź też: Prognoza pogody Rzeszów


Szczecin-Goleniów (EPSC)

METAR = EPSC 041300Z 30006KT 7000 -RA FEW004 BKN005 03/02 Q1016

STACJA........... EPSC - Szczecin-Goleniów (SZZ)
POMIAR........... Thu Mar 4, 14:00 CET
WIATR............ zachodni północno-zachodni (WNW) z prędkością 11 km/h
WIDZIALNOŚĆ...... 7000 metrów
WARUNKI.......... słaby: deszcz 
CHMURY........... zachmurzenie średnie (5/8-7/8)
TEMPERATURA...... 3°C
T.PUNKTU ROSY.... 2°C
WILGOTNOŚĆ....... 93%
T.ODCZUWALNA..... 0°C
CIŚNIENIE........ 1016 hPa
CIŚN.BEZWZGL..... 1010 hPa

Sprawdź też: Prognoza pogody Szczecin


Lublin-Świdnik (EPLB)

METAR = EPLB 041300Z 30016KT 9999 BKN030 BKN037 08/02 Q1011 =

STACJA........... EPLB - Lublin-Świdnik (LUZ)
POMIAR........... Thu Mar 4, 14:00 CET
WIATR............ zachodni północno-zachodni (WNW) z prędkością 30 km/h
WIDZIALNOŚĆ...... powyżej 10 kilometrów
CHMURY........... zachmurzenie średnie (5/8-7/8)
TEMPERATURA...... 8°C
T.PUNKTU ROSY.... 2°C
WILGOTNOŚĆ....... 66%
T.ODCZUWALNA..... 4°C
CIŚNIENIE........ 1011 hPa
CIŚN.BEZWZGL..... 986 hPa

Sprawdź też: Prognoza pogody Lublin


Bydgoszcz-Szwederowo (EPBY)

METAR = EPBY 041300Z 31010KT 9999 SCT012 BKN019 03/M00 Q1014=

STACJA........... EPBY - Bydgoszcz-Szwederowo (BZG)
POMIAR........... Thu Mar 4, 14:00 CET
WIATR............ północno zachodni (NW) z prędkością 19 km/h
WIDZIALNOŚĆ...... powyżej 10 kilometrów
CHMURY........... zachmurzenie średnie (5/8-7/8)
TEMPERATURA...... 3°C
T.PUNKTU ROSY.... 0°C
WILGOTNOŚĆ....... 81%
T.ODCZUWALNA..... -2°C
CIŚNIENIE........ 1014 hPa
CIŚN.BEZWZGL..... 1005 hPa

Sprawdź też: Prognoza pogody Bydgoszcz


Zielona Góra-Babimost (EPZG)

METAR = EPZG 041300Z 30007KT 260V340 8000 OVC026 05/00 Q1016 =

STACJA........... EPZG - Zielona Góra-Babimost (IEG)
POMIAR........... Thu Mar 4, 14:00 CET
WIATR............ zachodni północno-zachodni (WNW) z prędkością 13 km/h
WIDZIALNOŚĆ...... 8000 metrów
CHMURY........... zachmurzenie całkowite (8/8)
TEMPERATURA...... 5°C
T.PUNKTU ROSY.... 0°C
WILGOTNOŚĆ....... 70%
T.ODCZUWALNA..... 2°C
CIŚNIENIE........ 1016 hPa
CIŚN.BEZWZGL..... 1009 hPa

Sprawdź też: Prognoza pogody Zielona Góra


Szymany Olsztyn-Mazury (EPSY)

METAR = EPSY 041300Z 28006KT 240V320 9999 BKN017 03/M01 Q1011=

STACJA........... EPSY - Olsztyn-Mazury (SZY)
POMIAR........... Thu Mar 4, 14:00 CET
WIATR............ zachodni (W) z prędkością 11 km/h
WIDZIALNOŚĆ...... powyżej 10 kilometrów
CHMURY........... zachmurzenie średnie (5/8-7/8)
TEMPERATURA...... 3°C
T.PUNKTU ROSY.... -1°C
WILGOTNOŚĆ....... 75%
T.ODCZUWALNA..... 0°C
CIŚNIENIE........ 1011 hPa
CIŚN.BEZWZGL..... 994 hPa

Sprawdź też: Prognoza pogody Olsztyn


Cewice (EPCE)

METAR = EPCE 041300Z 03006KT 9999 SCT004 OVC030 01/00 Q1014 RMK 013 092 8/4=

STACJA........... EPCE - Cewice
POMIAR........... Thu Mar 4, 14:00 CET
WIATR............ północno północno-wschodni (NNE) z prędkością 11 km/h
WIDZIALNOŚĆ...... powyżej 10 kilometrów
CHMURY........... zachmurzenie całkowite (8/8)
TEMPERATURA...... 1°C
T.PUNKTU ROSY.... 0°C
WILGOTNOŚĆ....... 93%
T.ODCZUWALNA..... -2°C
CIŚNIENIE........ 1014 hPa
CIŚN.BEZWZGL..... 995 hPa

Darłowo (EPDA)

METAR = EPDA 041300Z 04007KT 350V070 9999 SCT005 OVC017 03/01 Q1015 RMK 025 093 8/4=

STACJA........... EPDA - Darłowo
POMIAR........... Thu Mar 4, 14:00 CET
WIATR............ północno-wschodni (NE) z prędkością 13 km/h
WIDZIALNOŚĆ...... powyżej 10 kilometrów
CHMURY........... zachmurzenie całkowite (8/8)
TEMPERATURA...... 3°C
T.PUNKTU ROSY.... 1°C
WILGOTNOŚĆ....... 87%
T.ODCZUWALNA..... -1°C
CIŚNIENIE........ 1015 hPa
CIŚN.BEZWZGL..... 1015 hPa

Dęblin (EPDE)

METAR = EPDE 041300Z 28014KT 9000 SCT020 BKN035 06/01 Q1012 RMK 064 067 6/3=

STACJA........... EPDE - Dęblin
POMIAR........... Thu Mar 4, 14:00 CET
WIATR............ zachodni (W) z prędkością 26 km/h
WIDZIALNOŚĆ...... 9000 metrów
CHMURY........... zachmurzenie średnie (5/8-7/8)
TEMPERATURA...... 6°C
T.PUNKTU ROSY.... 1°C
WILGOTNOŚĆ....... 71%
T.ODCZUWALNA..... 2°C
CIŚNIENIE........ 1012 hPa
CIŚN.BEZWZGL..... 998 hPa

Inowrocław-Latkowo (EPIR)

METAR = EPIR 041300Z 27012KT 9999 -RA SCT012 OVC017 02/M01 Q1014 RMK 016 083 8/4=

STACJA........... EPIR - Inowrocław-Latkowo
POMIAR........... Thu Mar 4, 14:00 CET
WIATR............ zachodni (W) z prędkością 22 km/h
WIDZIALNOŚĆ...... powyżej 10 kilometrów
WARUNKI.......... słaby: deszcz 
CHMURY........... zachmurzenie całkowite (8/8)
TEMPERATURA...... 2°C
T.PUNKTU ROSY.... -1°C
WILGOTNOŚĆ....... 81%
T.ODCZUWALNA..... -3°C
CIŚNIENIE........ 1014 hPa
CIŚN.BEZWZGL..... 1004 hPa

Poznań-Krzesiny (EPKS)

METAR = EPKS 041300Z 32013KT 8000 OVC017 03/02 Q1015 RMK 033 091 8/8=

STACJA........... EPKS - Poznań-Krzesiny
POMIAR........... Thu Mar 4, 14:00 CET
WIATR............ północno zachodni (NW) z prędkością 24 km/h
WIDZIALNOŚĆ...... 8000 metrów
CHMURY........... zachmurzenie całkowite (8/8)
TEMPERATURA...... 3°C
T.PUNKTU ROSY.... 2°C
WILGOTNOŚĆ....... 93%
T.ODCZUWALNA..... -2°C
CIŚNIENIE........ 1015 hPa
CIŚN.BEZWZGL..... 1005 hPa

Łask (EPLK)

METAR = EPLK 041300Z 28011KT 6000 SCT020 BKN030 06/05 Q1013 RMK 062 093 7/3=

STACJA........... EPLK - Łask
POMIAR........... Thu Mar 4, 14:00 CET
WIATR............ zachodni (W) z prędkością 20 km/h
WIDZIALNOŚĆ...... 6000 metrów
CHMURY........... zachmurzenie średnie (5/8-7/8)
TEMPERATURA...... 6°C
T.PUNKTU ROSY.... 5°C
WILGOTNOŚĆ....... 93%
T.ODCZUWALNA..... 2°C
CIŚNIENIE........ 1013 hPa
CIŚN.BEZWZGL..... 990 hPa

Łęczyca (EPLY)

METAR = EPLY 041300Z 32008KT 8000 BKN014 OVC030 03/00 Q1014 RMK 031 081 8/5=

STACJA........... EPLY - Łęczyca
POMIAR........... Thu Mar 4, 14:00 CET
WIATR............ północno zachodni (NW) z prędkością 15 km/h
WIDZIALNOŚĆ...... 8000 metrów
CHMURY........... zachmurzenie całkowite (8/8)
TEMPERATURA...... 3°C
T.PUNKTU ROSY.... 0°C
WILGOTNOŚĆ....... 81%
T.ODCZUWALNA..... -1°C
CIŚNIENIE........ 1014 hPa
CIŚN.BEZWZGL..... 1000 hPa

Malbork (EPMB)

METAR = EPMB 041300Z 30010KT 7000 -RADZ BKN008 OVC015 03/03 Q1013 RMK 029 100 8/5=

STACJA........... EPMB - Malbork
POMIAR........... Thu Mar 4, 14:00 CET
WIATR............ zachodni północno-zachodni (WNW) z prędkością 19 km/h
WIDZIALNOŚĆ...... 7000 metrów
WARUNKI.......... słaby: deszcz mżawka 
CHMURY........... zachmurzenie całkowite (8/8)
TEMPERATURA...... 3°C
T.PUNKTU ROSY.... 3°C
WILGOTNOŚĆ....... 100%
T.ODCZUWALNA..... -2°C
CIŚNIENIE........ 1013 hPa
CIŚN.BEZWZGL..... 1012 hPa

Mirosławiec (EPMI)

METAR = EPMI 041300Z 30009KT 9999 SCT007 OVC027 02/00 Q1015 RMK 019 089 8/4=051SAPL97 SOPR 041300 RRB

STACJA........... EPMI - Mirosławiec
POMIAR........... Thu Mar 4, 14:00 CET
WIATR............ zachodni północno-zachodni (WNW) z prędkością 17 km/h
WIDZIALNOŚĆ...... powyżej 10 kilometrów
CHMURY........... zachmurzenie całkowite (8/8)
TEMPERATURA...... 2°C
T.PUNKTU ROSY.... 0°C
WILGOTNOŚĆ....... 87%
T.ODCZUWALNA..... -2°C
CIŚNIENIE........ 1015 hPa
CIŚN.BEZWZGL..... 996 hPa

Mińsk Mazowiecki (EPMM)

METAR = EPMM 041300Z NIL=

STACJA........... EPMM - Mińsk Mazowiecki
POMIAR........... Thu Mar 4, 14:00 CET
DEPESZA.......... brak aktualnej prognozy w treści depeszy

Nadarzyce (EPNA)

METAR = EPNA 041300Z 29008KT 9999 SCT010 OVC020 02/M01 Q1014 RMK 023 079 8/4=

STACJA........... EPNA - Nadarzyce
POMIAR........... Thu Mar 4, 14:00 CET
WIATR............ zachodni północno-zachodni (WNW) z prędkością 15 km/h
WIDZIALNOŚĆ...... powyżej 10 kilometrów
CHMURY........... zachmurzenie całkowite (8/8)
TEMPERATURA...... 2°C
T.PUNKTU ROSY.... -1°C
WILGOTNOŚĆ....... 81%
T.ODCZUWALNA..... -2°C
CIŚNIENIE........ 1014 hPa
CIŚN.BEZWZGL..... 998 hPa

Gdynia-Kosakowo (EPOK)

METAR = EPOK 041300Z 01011KT 9999 -RA SCT011 OVC042 02/00 Q1014 RMK 019 089 8/4=

STACJA........... EPOK - Gdynia-Kosakowo
POMIAR........... Thu Mar 4, 14:00 CET
WIATR............ północny (N) z prędkością 20 km/h
WIDZIALNOŚĆ...... powyżej 10 kilometrów
WARUNKI.......... słaby: deszcz 
CHMURY........... zachmurzenie całkowite (8/8)
TEMPERATURA...... 2°C
T.PUNKTU ROSY.... 0°C
WILGOTNOŚĆ....... 87%
T.ODCZUWALNA..... -2°C
CIŚNIENIE........ 1014 hPa
CIŚN.BEZWZGL..... 1008 hPa

Pruszcz Gdański (EPPR)

METAR = EPPR 041300Z 34006KT 9999 BKN009 OVC024 02/00 Q1014 RMK 023 085 8/5=

STACJA........... EPPR - Pruszcz Gdański
POMIAR........... Thu Mar 4, 14:00 CET
WIATR............ północno północno-zachodni (NNW) z prędkością 11 km/h
WIDZIALNOŚĆ...... powyżej 10 kilometrów
CHMURY........... zachmurzenie całkowite (8/8)
TEMPERATURA...... 2°C
T.PUNKTU ROSY.... 0°C
WILGOTNOŚĆ....... 87%
T.ODCZUWALNA..... -1°C
CIŚNIENIE........ 1014 hPa
CIŚN.BEZWZGL..... 1013 hPa

Powidz (EPPW)

METAR = EPPW 041300Z NIL=

STACJA........... EPPW - Powidz
POMIAR........... Thu Mar 4, 14:00 CET
DEPESZA.......... brak aktualnej prognozy w treści depeszy

Radom-Sadków (EPRA)

METAR = EPRA 041300Z 30010KT 7000 SCT020 BKN030 07/01 Q1013 RMK 065 070 7/4=

STACJA........... EPRA - Radom-Sadków
POMIAR........... Thu Mar 4, 14:00 CET
WIATR............ zachodni północno-zachodni (WNW) z prędkością 19 km/h
WIDZIALNOŚĆ...... 7000 metrów
CHMURY........... zachmurzenie średnie (5/8-7/8)
TEMPERATURA...... 7°C
T.PUNKTU ROSY.... 1°C
WILGOTNOŚĆ....... 66%
T.ODCZUWALNA..... 4°C
CIŚNIENIE........ 1013 hPa
CIŚN.BEZWZGL..... 990 hPa

Świdwin (EPSN)

METAR = EPSN 041300Z NIL=

STACJA........... EPSN - Świdwin
POMIAR........... Thu Mar 4, 14:00 CET
DEPESZA.......... brak aktualnej prognozy w treści depeszy

Tomaszów Mazowiecki (EPTM)

METAR = EPTM 041300Z 26010KT 7000 SCT017 OVC026 06/00 Q1013 RMK 061 067 8/4=

STACJA........... EPTM - Tomaszów Mazowiecki
POMIAR........... Thu Mar 4, 14:00 CET
WIATR............ zachodni (W) z prędkością 19 km/h
WIDZIALNOŚĆ...... 7000 metrów
CHMURY........... zachmurzenie całkowite (8/8)
TEMPERATURA...... 6°C
T.PUNKTU ROSY.... 0°C
WILGOTNOŚĆ....... 66%
T.ODCZUWALNA..... 3°C
CIŚNIENIE........ 1013 hPa
CIŚN.BEZWZGL..... 992 hPa